Aérodrome :
LOGIN :

S'inscrire | Disclaimer

   EN    FR    IT 

 










Légende :    VFR   VFR Marginal   IFR   IFR Intensif   IFR Très Intensif
Visi : 
Plafond : 
>= 8 km
>= 3000ft
5 à 8 km
1000 à 3000 ft
1500m à 5 km
500 à 1000 ft
800 à 1500m
200 à 500 ft
< 800m
< 200 ft
Symboles :   Orages  Brouillard  Fortes neiges  Fortes précipitations  Vent > 20 kt
SIGMETs :   Divers  Orages  Givrage  Turbulence  Onde Orograph.  Cendres Volcan.






- Altitude de l'aérodrome : 63 ft
- Code IATA : BZM


EHWO - Woensdrecht Airbase

DERNIER METAR :
  • 272055Z AUTO 18009KT 150V220 9999 -DZRA FEW007 SCT010 BKN015 08/07 Q0994 REDZ GRN

METARs EXPIRÉS :
  • 272036Z AUTO 18010KT 140V230 9999 -RA BKN015CB SCT024 BKN031 08/06 Q0994 WHT
  • 272032Z AUTO 18009G19KT 140V230 9999 -SHRA BKN015CB SCT029 BKN032 08/06 Q0994 WHT
  • 272014Z AUTO 19009G22KT 120V220 8000 RA FEW010 BKN015CB BKN019 08/06 Q0995 WHT
  • 271956Z AUTO 17007KT 130V220 9000 -SHRA BKN015CB BKN020 OVC030 08/07 Q0995 WHT
  • 271939Z AUTO 18008KT 130V210 9999 DZRA SCT016 BKN019 BKN024 08/07 Q0996 WHT
  • 271929Z AUTO 17008KT 120V210 9999 DZ FEW016 SCT019 BKN024 08/07 Q0996 WHT
  • 271913Z AUTO 17007KT 120V230 9999 -RA FEW016 SCT026 BKN030 08/07 Q0996 BLU
  • 271859Z AUTO 17007KT 130V210 9999 DZRA BKN015 BKN023 BKN029 08/07 Q0997 WHT
  • 271841Z AUTO 17006KT 120V210 9999 FEW013 BKN015 BKN019 08/07 Q0997 WHT
  • 271834Z AUTO 17007KT 130V220 9999 FEW011 SCT014 BKN016 08/07 Q0998 GRN
  • 271825Z AUTO 17005KT 120V210 9999 FEW012 SCT014 BKN016 08/07 Q0998 GRN
  • 271814Z AUTO 17007KT 120V200 9999 SCT014 SCT017 BKN093 08/07 Q0998 GRN
  • 271755Z AUTO 18007KT 120V210 9999 FEW036 OVC100 08/06 Q0999 BLU

TAF AMD TAF EHWO
Valide du 27 à 12h jusqu'au 28 à 00h UTC


271148Z 2712/2724 21006KT 9999 FEW012 SCT035 BKN210
TEMPO 2712/2719 FEW012 SCT015
BECMG 2719/2721 FEW012 BKN015
TEMPO 2720/2722 4000 RA SCT008 BKN012



MET'MAP, la Météo Aéronautique d'un coup d'oeil ! - Copyright ORBIFLY Décembre 2007 - Disclaimer

ORBIFLY MET'MAP TEAM :

Programmation & Développement : Alexandra Zaïnal
Sur une idée originale de : Baudouin d'Aumeries
Assistance à la programmation : Marc-Olivier Méhu
Soutien technique & logistique : Manuel Goepfert

Contact : metmap@orbifly.com




SOURCES & CREDITS :

   NOAA